sensor_id;sensor_type;location;lat;lon;timestamp;pressure;altitude;pressure_sealevel;temperature
15845;BMP180;50807;52.436;13.346;2023-11-19T00:00:25;101076.00;;;9.40
15845;BMP180;50807;52.436;13.346;2023-11-19T00:00:56;101074.00;;;9.40
15845;BMP180;50807;52.436;13.346;2023-11-19T00:01:27;101073.00;;;9.40
15845;BMP180;50807;52.436;13.346;2023-11-19T00:01:58;101064.00;;;9.40
15845;BMP180;50807;52.436;13.346;2023-11-19T00:02:29;101071.00;;;9.40
15845;BMP180;50807;52.436;13.346;2023-11-19T00:03:00;101057.00;;;9.40
15845;BMP180;50807;52.436;13.346;2023-11-19T00:03:32;101061.00;;;9.40
15845;BMP180;50807;52.436;13.346;2023-11-19T00:04:04;101058.00;;;9.40
15845;BMP180;50807;52.436;13.346;2023-11-19T00:04:36;101062.00;;;9.40
15845;BMP180;50807;52.436;13.346;2023-11-19T00:05:08;101063.00;;;9.40
15845;BMP180;50807;52.436;13.346;2023-11-19T00:05:41;101058.00;;;9.40
15845;BMP180;50807;52.436;13.346;2023-11-19T00:06:12;101056.00;;;9.40
15845;BMP180;50807;52.436;13.346;2023-11-19T00:06:44;101067.00;;;9.40
15845;BMP180;50807;52.436;13.346;2023-11-19T00:07:16;101055.00;;;9.40
15845;BMP180;50807;52.436;13.346;2023-11-19T00:07:47;101048.00;;;9.40
15845;BMP180;50807;52.436;13.346;2023-11-19T00:08:17;101056.00;;;9.40
15845;BMP180;50807;52.436;13.346;2023-11-19T00:08:48;101051.00;;;9.40
15845;BMP180;50807;52.436;13.346;2023-11-19T00:09:19;101042.00;;;9.40
15845;BMP180;50807;52.436;13.346;2023-11-19T00:09:51;101041.00;;;9.40
15845;BMP180;50807;52.436;13.346;2023-11-19T00:10:21;101036.00;;;9.40
15845;BMP180;50807;52.436;13.346;2023-11-19T00:10:52;101034.00;;;9.40
15845;BMP180;50807;52.436;13.346;2023-11-19T00:11:24;101033.00;;;9.40
15845;BMP180;50807;52.436;13.346;2023-11-19T00:11:55;101019.00;;;9.40
15845;BMP180;50807;52.436;13.346;2023-11-19T00:12:26;101027.00;;;9.40
15845;BMP180;50807;52.436;13.346;2023-11-19T00:12:56;101030.00;;;9.40
15845;BMP180;50807;52.436;13.346;2023-11-19T00:13:28;101023.00;;;9.40
15845;BMP180;50807;52.436;13.346;2023-11-19T00:13:59;101020.00;;;9.40
15845;BMP180;50807;52.436;13.346;2023-11-19T00:14:30;101020.00;;;9.40
15845;BMP180;50807;52.436;13.346;2023-11-19T00:15:01;101017.00;;;9.40
15845;BMP180;50807;52.436;13.346;2023-11-19T00:15:32;101019.00;;;9.40
15845;BMP180;50807;52.436;13.346;2023-11-19T00:16:05;101022.00;;;9.40
15845;BMP180;50807;52.436;13.346;2023-11-19T00:16:38;101021.00;;;9.40
15845;BMP180;50807;52.436;13.346;2023-11-19T00:17:08;101022.00;;;9.40
15845;BMP180;50807;52.436;13.346;2023-11-19T00:17:40;101010.00;;;9.40
15845;BMP180;50807;52.436;13.346;2023-11-19T00:18:15;101015.00;;;9.40
15845;BMP180;50807;52.436;13.346;2023-11-19T00:18:46;100997.00;;;9.40
15845;BMP180;50807;52.436;13.346;2023-11-19T00:19:17;101021.00;;;9.40
15845;BMP180;50807;52.436;13.346;2023-11-19T00:19:47;101015.00;;;9.40
15845;BMP180;50807;52.436;13.346;2023-11-19T00:20:21;101007.00;;;9.40
15845;BMP180;50807;52.436;13.346;2023-11-19T00:20:52;101009.00;;;9.40
15845;BMP180;50807;52.436;13.346;2023-11-19T00:21:23;101011.00;;;9.40
15845;BMP180;50807;52.436;13.346;2023-11-19T00:21:55;101006.00;;;9.40
15845;BMP180;50807;52.436;13.346;2023-11-19T00:22:26;101001.00;;;9.40
15845;BMP180;50807;52.436;13.346;2023-11-19T00:22:58;101001.00;;;9.40
15845;BMP180;50807;52.436;13.346;2023-11-19T00:23:29;100994.00;;;9.40
15845;BMP180;50807;52.436;13.346;2023-11-19T00:23:59;101004.00;;;9.40
15845;BMP180;50807;52.436;13.346;2023-11-19T00:24:31;100998.00;;;9.40
15845;BMP180;50807;52.436;13.346;2023-11-19T00:25:03;100999.00;;;9.40
15845;BMP180;50807;52.436;13.346;2023-11-19T00:25:34;101006.00;;;9.40
15845;BMP180;50807;52.436;13.346;2023-11-19T00:26:05;100992.00;;;9.40
15845;BMP180;50807;52.436;13.346;2023-11-19T00:26:37;101008.00;;;9.40
15845;BMP180;50807;52.436;13.346;2023-11-19T00:27:07;101009.00;;;9.40
15845;BMP180;50807;52.436;13.346;2023-11-19T00:27:38;101021.00;;;9.50
15845;BMP180;50807;52.436;13.346;2023-11-19T00:28:09;101001.00;;;9.50
15845;BMP180;50807;52.436;13.346;2023-11-19T00:28:40;101002.00;;;9.50
15845;BMP180;50807;52.436;13.346;2023-11-19T00:29:11;101013.00;;;9.50
15845;BMP180;50807;52.436;13.346;2023-11-19T00:29:44;100998.00;;;9.50
15845;BMP180;50807;52.436;13.346;2023-11-19T00:30:15;101009.00;;;9.50
15845;BMP180;50807;52.436;13.346;2023-11-19T00:30:47;101003.00;;;9.50
15845;BMP180;50807;52.436;13.346;2023-11-19T00:31:18;101002.00;;;9.50
15845;BMP180;50807;52.436;13.346;2023-11-19T00:31:49;101006.00;;;9.40
15845;BMP180;50807;52.436;13.346;2023-11-19T00:32:20;101002.00;;;9.50
15845;BMP180;50807;52.436;13.346;2023-11-19T00:32:51;100997.00;;;9.40
15845;BMP180;50807;52.436;13.346;2023-11-19T00:33:22;100998.00;;;9.40
15845;BMP180;50807;52.436;13.346;2023-11-19T00:33:53;101002.00;;;9.40
15845;BMP180;50807;52.436;13.346;2023-11-19T00:34:24;100997.00;;;9.40
15845;BMP180;50807;52.436;13.346;2023-11-19T00:34:55;100994.00;;;9.40
15845;BMP180;50807;52.436;13.346;2023-11-19T00:35:26;101000.00;;;9.50
15845;BMP180;50807;52.436;13.346;2023-11-19T00:35:57;101002.00;;;9.50
15845;BMP180;50807;52.436;13.346;2023-11-19T00:36:28;101000.00;;;9.50
15845;BMP180;50807;52.436;13.346;2023-11-19T00:37:00;100987.00;;;9.50
15845;BMP180;50807;52.436;13.346;2023-11-19T00:37:31;100994.00;;;9.50
15845;BMP180;50807;52.436;13.346;2023-11-19T00:38:03;100987.00;;;9.50
15845;BMP180;50807;52.436;13.346;2023-11-19T00:38:34;100989.00;;;9.50
15845;BMP180;50807;52.436;13.346;2023-11-19T00:39:05;100979.00;;;9.40
15845;BMP180;50807;52.436;13.346;2023-11-19T00:39:36;100971.00;;;9.50
15845;BMP180;50807;52.436;13.346;2023-11-19T00:40:09;100963.00;;;9.50
15845;BMP180;50807;52.436;13.346;2023-11-19T00:40:41;100985.00;;;9.50
15845;BMP180;50807;52.436;13.346;2023-11-19T00:41:11;100985.00;;;9.50
15845;BMP180;50807;52.436;13.346;2023-11-19T00:41:42;100979.00;;;9.50
15845;BMP180;50807;52.436;13.346;2023-11-19T00:42:14;100979.00;;;9.50
15845;BMP180;50807;52.436;13.346;2023-11-19T00:42:45;100979.00;;;9.50
15845;BMP180;50807;52.436;13.346;2023-11-19T00:43:15;100984.00;;;9.50
15845;BMP180;50807;52.436;13.346;2023-11-19T00:43:46;100980.00;;;9.40
15845;BMP180;50807;52.436;13.346;2023-11-19T00:44:18;100967.00;;;9.40
15845;BMP180;50807;52.436;13.346;2023-11-19T00:44:50;100965.00;;;9.50
15845;BMP180;50807;52.436;13.346;2023-11-19T00:45:21;100959.00;;;9.40
15845;BMP180;50807;52.436;13.346;2023-11-19T00:45:52;100965.00;;;9.40
15845;BMP180;50807;52.436;13.346;2023-11-19T00:46:23;100970.00;;;9.50
15845;BMP180;50807;52.436;13.346;2023-11-19T00:46:54;100964.00;;;9.50
15845;BMP180;50807;52.436;13.346;2023-11-19T00:47:25;100964.00;;;9.40
15845;BMP180;50807;52.436;13.346;2023-11-19T00:47:55;100958.00;;;9.50
15845;BMP180;50807;52.436;13.346;2023-11-19T00:48:30;100966.00;;;9.50
15845;BMP180;50807;52.436;13.346;2023-11-19T00:49:00;100954.00;;;9.40
15845;BMP180;50807;52.436;13.346;2023-11-19T00:49:31;100954.00;;;9.40
15845;BMP180;50807;52.436;13.346;2023-11-19T00:50:04;100953.00;;;9.40
15845;BMP180;50807;52.436;13.346;2023-11-19T00:50:35;100952.00;;;9.40
15845;BMP180;50807;52.436;13.346;2023-11-19T00:51:07;100952.00;;;9.40
15845;BMP180;50807;52.436;13.346;2023-11-19T00:51:38;100952.00;;;9.40
15845;BMP180;50807;52.436;13.346;2023-11-19T00:52:10;100938.00;;;9.40
15845;BMP180;50807;52.436;13.346;2023-11-19T00:52:41;100941.00;;;9.40
15845;BMP180;50807;52.436;13.346;2023-11-19T00:53:12;100943.00;;;9.40
15845;BMP180;50807;52.436;13.346;2023-11-19T00:53:43;100940.00;;;9.40
15845;BMP180;50807;52.436;13.346;2023-11-19T00:54:14;100934.00;;;9.40
15845;BMP180;50807;52.436;13.346;2023-11-19T00:54:44;100940.00;;;9.40
15845;BMP180;50807;52.436;13.346;2023-11-19T00:55:16;100943.00;;;9.40
15845;BMP180;50807;52.436;13.346;2023-11-19T00:55:48;100915.00;;;9.40
15845;BMP180;50807;52.436;13.346;2023-11-19T00:56:19;100934.00;;;9.50
15845;BMP180;50807;52.436;13.346;2023-11-19T00:56:49;100924.00;;;9.40
15845;BMP180;50807;52.436;13.346;2023-11-19T00:57:22;100920.00;;;9.40
15845;BMP180;50807;52.436;13.346;2023-11-19T00:57:54;100929.00;;;9.40
15845;BMP180;50807;52.436;13.346;2023-11-19T00:58:26;100921.00;;;9.40
15845;BMP180;50807;52.436;13.346;2023-11-19T00:58:57;100923.00;;;9.40
15845;BMP180;50807;52.436;13.346;2023-11-19T00:59:30;100923.00;;;9.40
15845;BMP180;50807;52.436;13.346;2023-11-19T01:00:01;100911.00;;;9.40
15845;BMP180;50807;52.436;13.346;2023-11-19T01:00:33;100909.00;;;9.40
15845;BMP180;50807;52.436;13.346;2023-11-19T01:01:05;100917.00;;;9.30
15845;BMP180;50807;52.436;13.346;2023-11-19T01:01:36;100914.00;;;9.40
15845;BMP180;50807;52.436;13.346;2023-11-19T01:02:07;100908.00;;;9.40
15845;BMP180;50807;52.436;13.346;2023-11-19T01:02:38;100911.00;;;9.40
15845;BMP180;50807;52.436;13.346;2023-11-19T01:03:10;100906.00;;;9.40
15845;BMP180;50807;52.436;13.346;2023-11-19T01:03:40;100913.00;;;9.40
15845;BMP180;50807;52.436;13.346;2023-11-19T01:04:11;100904.00;;;9.40
15845;BMP180;50807;52.436;13.346;2023-11-19T01:04:42;100903.00;;;9.30
15845;BMP180;50807;52.436;13.346;2023-11-19T01:05:13;100903.00;;;9.30
15845;BMP180;50807;52.436;13.346;2023-11-19T01:05:45;100907.00;;;9.30
15845;BMP180;50807;52.436;13.346;2023-11-19T01:06:27;100907.00;;;9.20
15845;BMP180;50807;52.436;13.346;2023-11-19T01:06:58;100911.00;;;9.30
15845;BMP180;50807;52.436;13.346;2023-11-19T01:07:30;100898.00;;;9.30
15845;BMP180;50807;52.436;13.346;2023-11-19T01:08:01;100907.00;;;9.30
15845;BMP180;50807;52.436;13.346;2023-11-19T01:08:35;100901.00;;;9.30
15845;BMP180;50807;52.436;13.346;2023-11-19T01:09:06;100901.00;;;9.30
15845;BMP180;50807;52.436;13.346;2023-11-19T01:09:38;100904.00;;;9.30
15845;BMP180;50807;52.436;13.346;2023-11-19T01:10:10;100889.00;;;9.30
15845;BMP180;50807;52.436;13.346;2023-11-19T01:10:41;100911.00;;;9.30
15845;BMP180;50807;52.436;13.346;2023-11-19T01:11:20;100906.00;;;9.30
15845;BMP180;50807;52.436;13.346;2023-11-19T01:11:51;100890.00;;;9.30
15845;BMP180;50807;52.436;13.346;2023-11-19T01:12:23;100885.00;;;9.30
15845;BMP180;50807;52.436;13.346;2023-11-19T01:12:54;100900.00;;;9.30
15845;BMP180;50807;52.436;13.346;2023-11-19T01:13:24;100889.00;;;9.40
15845;BMP180;50807;52.436;13.346;2023-11-19T01:13:55;100885.00;;;9.40
15845;BMP180;50807;52.436;13.346;2023-11-19T01:14:27;100858.00;;;9.40
15845;BMP180;50807;52.436;13.346;2023-11-19T01:14:58;100874.00;;;9.40
15845;BMP180;50807;52.436;13.346;2023-11-19T01:15:28;100867.00;;;9.40
15845;BMP180;50807;52.436;13.346;2023-11-19T01:15:59;100865.00;;;9.40
15845;BMP180;50807;52.436;13.346;2023-11-19T01:16:32;100874.00;;;9.40
15845;BMP180;50807;52.436;13.346;2023-11-19T01:17:03;100864.00;;;9.40
15845;BMP180;50807;52.436;13.346;2023-11-19T01:17:36;100854.00;;;9.40
15845;BMP180;50807;52.436;13.346;2023-11-19T01:18:07;100861.00;;;9.40
15845;BMP180;50807;52.436;13.346;2023-11-19T01:18:39;100866.00;;;9.40
15845;BMP180;50807;52.436;13.346;2023-11-19T01:19:10;100845.00;;;9.40
15845;BMP180;50807;52.436;13.346;2023-11-19T01:19:42;100862.00;;;9.40
15845;BMP180;50807;52.436;13.346;2023-11-19T01:20:13;100862.00;;;9.40
15845;BMP180;50807;52.436;13.346;2023-11-19T01:20:44;100853.00;;;9.40
15845;BMP180;50807;52.436;13.346;2023-11-19T01:21:15;100860.00;;;9.40
15845;BMP180;50807;52.436;13.346;2023-11-19T01:21:46;100847.00;;;9.40
15845;BMP180;50807;52.436;13.346;2023-11-19T01:22:17;100852.00;;;9.40
15845;BMP180;50807;52.436;13.346;2023-11-19T01:22:51;100849.00;;;9.40
15845;BMP180;50807;52.436;13.346;2023-11-19T01:23:22;100843.00;;;9.40
15845;BMP180;50807;52.436;13.346;2023-11-19T01:23:53;100860.00;;;9.40
15845;BMP180;50807;52.436;13.346;2023-11-19T01:24:23;100834.00;;;9.40
15845;BMP180;50807;52.436;13.346;2023-11-19T01:24:58;100843.00;;;9.40
15845;BMP180;50807;52.436;13.346;2023-11-19T01:25:29;100831.00;;;9.40
15845;BMP180;50807;52.436;13.346;2023-11-19T01:26:00;100839.00;;;9.40
15845;BMP180;50807;52.436;13.346;2023-11-19T01:26:31;100835.00;;;9.40
15845;BMP180;50807;52.436;13.346;2023-11-19T01:27:03;100844.00;;;9.40
15845;BMP180;50807;52.436;13.346;2023-11-19T01:27:34;100827.00;;;9.40
15845;BMP180;50807;52.436;13.346;2023-11-19T01:28:05;100837.00;;;9.40
15845;BMP180;50807;52.436;13.346;2023-11-19T01:28:36;100839.00;;;9.40
15845;BMP180;50807;52.436;13.346;2023-11-19T01:29:09;100836.00;;;9.40
15845;BMP180;50807;52.436;13.346;2023-11-19T01:29:40;100838.00;;;9.40
15845;BMP180;50807;52.436;13.346;2023-11-19T01:30:13;100828.00;;;9.40
15845;BMP180;50807;52.436;13.346;2023-11-19T01:30:44;100836.00;;;9.40
15845;BMP180;50807;52.436;13.346;2023-11-19T01:31:16;100804.00;;;9.40
15845;BMP180;50807;52.436;13.346;2023-11-19T01:31:47;100817.00;;;9.40
15845;BMP180;50807;52.436;13.346;2023-11-19T01:32:18;100804.00;;;9.40
15845;BMP180;50807;52.436;13.346;2023-11-19T01:32:48;100838.00;;;9.40
15845;BMP180;50807;52.436;13.346;2023-11-19T01:33:20;100800.00;;;9.40
15845;BMP180;50807;52.436;13.346;2023-11-19T01:33:52;100820.00;;;9.40
15845;BMP180;50807;52.436;13.346;2023-11-19T01:34:22;100818.00;;;9.40
15845;BMP180;50807;52.436;13.346;2023-11-19T01:34:53;100818.00;;;9.40
15845;BMP180;50807;52.436;13.346;2023-11-19T01:35:25;100826.00;;;9.40
15845;BMP180;50807;52.436;13.346;2023-11-19T01:35:56;100812.00;;;9.40
15845;BMP180;50807;52.436;13.346;2023-11-19T01:36:29;100812.00;;;9.40
15845;BMP180;50807;52.436;13.346;2023-11-19T01:37:00;100818.00;;;9.40
15845;BMP180;50807;52.436;13.346;2023-11-19T01:37:31;100817.00;;;9.40
15845;BMP180;50807;52.436;13.346;2023-11-19T01:38:04;100814.00;;;9.40
15845;BMP180;50807;52.436;13.346;2023-11-19T01:38:35;100812.00;;;9.40
15845;BMP180;50807;52.436;13.346;2023-11-19T01:39:07;100804.00;;;9.40
15845;BMP180;50807;52.436;13.346;2023-11-19T01:39:38;100801.00;;;9.40
15845;BMP180;50807;52.436;13.346;2023-11-19T01:40:11;100796.00;;;9.40
15845;BMP180;50807;52.436;13.346;2023-11-19T01:40:42;100800.00;;;9.40
15845;BMP180;50807;52.436;13.346;2023-11-19T01:41:14;100797.00;;;9.40
15845;BMP180;50807;52.436;13.346;2023-11-19T01:41:44;100794.00;;;9.50
15845;BMP180;50807;52.436;13.346;2023-11-19T01:42:15;100798.00;;;9.50
15845;BMP180;50807;52.436;13.346;2023-11-19T01:42:47;100807.00;;;9.40
15845;BMP180;50807;52.436;13.346;2023-11-19T01:43:32;100792.00;;;9.30
15845;BMP180;50807;52.436;13.346;2023-11-19T01:44:05;100797.00;;;9.40
15845;BMP180;50807;52.436;13.346;2023-11-19T01:44:36;100790.00;;;9.40
15845;BMP180;50807;52.436;13.346;2023-11-19T01:45:08;100785.00;;;9.40
15845;BMP180;50807;52.436;13.346;2023-11-19T01:45:40;100784.00;;;9.40
15845;BMP180;50807;52.436;13.346;2023-11-19T01:46:11;100793.00;;;9.40
15845;BMP180;50807;52.436;13.346;2023-11-19T01:46:44;100794.00;;;9.40
15845;BMP180;50807;52.436;13.346;2023-11-19T01:47:18;100793.00;;;9.40
15845;BMP180;50807;52.436;13.346;2023-11-19T01:47:50;100797.00;;;9.40
15845;BMP180;50807;52.436;13.346;2023-11-19T01:48:22;100791.00;;;9.50
15845;BMP180;50807;52.436;13.346;2023-11-19T01:48:53;100791.00;;;9.50
15845;BMP180;50807;52.436;13.346;2023-11-19T01:49:25;100782.00;;;9.40
15845;BMP180;50807;52.436;13.346;2023-11-19T01:49:57;100785.00;;;9.50
15845;BMP180;50807;52.436;13.346;2023-11-19T01:50:29;100788.00;;;9.50
15845;BMP180;50807;52.436;13.346;2023-11-19T01:51:01;100782.00;;;9.40
15845;BMP180;50807;52.436;13.346;2023-11-19T01:51:33;100779.00;;;9.40
15845;BMP180;50807;52.436;13.346;2023-11-19T01:52:05;100781.00;;;9.50
15845;BMP180;50807;52.436;13.346;2023-11-19T01:52:37;100774.00;;;9.40
15845;BMP180;50807;52.436;13.346;2023-11-19T01:53:10;100779.00;;;9.40
15845;BMP180;50807;52.436;13.346;2023-11-19T01:53:42;100777.00;;;9.40
15845;BMP180;50807;52.436;13.346;2023-11-19T01:54:14;100773.00;;;9.40
15845;BMP180;50807;52.436;13.346;2023-11-19T01:54:46;100771.00;;;9.40
15845;BMP180;50807;52.436;13.346;2023-11-19T01:55:20;100763.00;;;9.40
15845;BMP180;50807;52.436;13.346;2023-11-19T01:55:51;100770.00;;;9.40
15845;BMP180;50807;52.436;13.346;2023-11-19T01:56:24;100757.00;;;9.40
15845;BMP180;50807;52.436;13.346;2023-11-19T01:56:57;100757.00;;;9.40
15845;BMP180;50807;52.436;13.346;2023-11-19T01:57:29;100757.00;;;9.40
15845;BMP180;50807;52.436;13.346;2023-11-19T01:58:01;100764.00;;;9.40
15845;BMP180;50807;52.436;13.346;2023-11-19T01:58:32;100760.00;;;9.40
15845;BMP180;50807;52.436;13.346;2023-11-19T01:59:03;100753.00;;;9.40
15845;BMP180;50807;52.436;13.346;2023-11-19T01:59:35;100755.00;;;9.40
15845;BMP180;50807;52.436;13.346;2023-11-19T02:00:09;100754.00;;;9.40
15845;BMP180;50807;52.436;13.346;2023-11-19T02:00:44;100751.00;;;9.40
15845;BMP180;50807;52.436;13.346;2023-11-19T02:01:15;100750.00;;;9.30
15845;BMP180;50807;52.436;13.346;2023-11-19T02:01:46;100753.00;;;9.40
15845;BMP180;50807;52.436;13.346;2023-11-19T02:02:18;100746.00;;;9.40
15845;BMP180;50807;52.436;13.346;2023-11-19T02:02:52;100755.00;;;9.40
15845;BMP180;50807;52.436;13.346;2023-11-19T02:03:23;100760.00;;;9.30
15845;BMP180;50807;52.436;13.346;2023-11-19T02:03:56;100749.00;;;9.40
15845;BMP180;50807;52.436;13.346;2023-11-19T02:04:28;100747.00;;;9.40
15845;BMP180;50807;52.436;13.346;2023-11-19T02:04:59;100753.00;;;9.40
15845;BMP180;50807;52.436;13.346;2023-11-19T02:05:30;100751.00;;;9.40
15845;BMP180;50807;52.436;13.346;2023-11-19T02:06:04;100742.00;;;9.40
15845;BMP180;50807;52.436;13.346;2023-11-19T02:06:40;100742.00;;;9.30
15845;BMP180;50807;52.436;13.346;2023-11-19T02:07:11;100733.00;;;9.40
15845;BMP180;50807;52.436;13.346;2023-11-19T02:07:42;100738.00;;;9.40
15845;BMP180;50807;52.436;13.346;2023-11-19T02:08:15;100732.00;;;9.40
15845;BMP180;50807;52.436;13.346;2023-11-19T02:08:45;100728.00;;;9.40
15845;BMP180;50807;52.436;13.346;2023-11-19T02:09:16;100737.00;;;9.40
15845;BMP180;50807;52.436;13.346;2023-11-19T02:09:49;100734.00;;;9.40
15845;BMP180;50807;52.436;13.346;2023-11-19T02:10:20;100727.00;;;9.40
15845;BMP180;50807;52.436;13.346;2023-11-19T02:10:51;100725.00;;;9.40
15845;BMP180;50807;52.436;13.346;2023-11-19T02:11:22;100722.00;;;9.40
15845;BMP180;50807;52.436;13.346;2023-11-19T02:11:55;100715.00;;;9.40
15845;BMP180;50807;52.436;13.346;2023-11-19T02:12:26;100715.00;;;9.40
15845;BMP180;50807;52.436;13.346;2023-11-19T02:12:59;100708.00;;;9.40
15845;BMP180;50807;52.436;13.346;2023-11-19T02:13:29;100710.00;;;9.40
15845;BMP180;50807;52.436;13.346;2023-11-19T02:14:01;100705.00;;;9.40
15845;BMP180;50807;52.436;13.346;2023-11-19T02:14:34;100700.00;;;9.40
15845;BMP180;50807;52.436;13.346;2023-11-19T02:15:05;100710.00;;;9.40
15845;BMP180;50807;52.436;13.346;2023-11-19T02:15:36;100690.00;;;9.40
15845;BMP180;50807;52.436;13.346;2023-11-19T02:16:08;100695.00;;;9.40
15845;BMP180;50807;52.436;13.346;2023-11-19T02:16:41;100687.00;;;9.40
15845;BMP180;50807;52.436;13.346;2023-11-19T02:17:26;100684.00;;;9.20
15845;BMP180;50807;52.436;13.346;2023-11-19T02:17:57;100675.00;;;9.30
15845;BMP180;50807;52.436;13.346;2023-11-19T02:18:29;100654.00;;;9.30
15845;BMP180;50807;52.436;13.346;2023-11-19T02:19:00;100663.00;;;9.30
15845;BMP180;50807;52.436;13.346;2023-11-19T02:19:31;100658.00;;;9.30
15845;BMP180;50807;52.436;13.346;2023-11-19T02:20:02;100664.00;;;9.30
15845;BMP180;50807;52.436;13.346;2023-11-19T02:20:34;100671.00;;;9.30
15845;BMP180;50807;52.436;13.346;2023-11-19T02:21:05;100661.00;;;9.30
15845;BMP180;50807;52.436;13.346;2023-11-19T02:21:37;100662.00;;;9.30
15845;BMP180;50807;52.436;13.346;2023-11-19T02:22:08;100651.00;;;9.30
15845;BMP180;50807;52.436;13.346;2023-11-19T02:22:39;100649.00;;;9.30
15845;BMP180;50807;52.436;13.346;2023-11-19T02:23:12;100647.00;;;9.30
15845;BMP180;50807;52.436;13.346;2023-11-19T02:23:45;100656.00;;;9.30
15845;BMP180;50807;52.436;13.346;2023-11-19T02:24:22;100656.00;;;9.30
15845;BMP180;50807;52.436;13.346;2023-11-19T02:25:01;100658.00;;;9.20
15845;BMP180;50807;52.436;13.346;2023-11-19T02:25:35;100659.00;;;9.30
15845;BMP180;50807;52.436;13.346;2023-11-19T02:26:16;100664.00;;;9.20
15845;BMP180;50807;52.436;13.346;2023-11-19T02:26:59;100639.00;;;9.20
15845;BMP180;50807;52.436;13.346;2023-11-19T02:27:46;100655.00;;;9.20
15845;BMP180;50807;52.436;13.346;2023-11-19T02:28:17;100652.00;;;9.30
15845;BMP180;50807;52.436;13.346;2023-11-19T02:28:48;100662.00;;;9.30
15845;BMP180;50807;52.436;13.346;2023-11-19T02:29:20;100651.00;;;9.30
15845;BMP180;50807;52.436;13.346;2023-11-19T02:29:51;100629.00;;;9.30
15845;BMP180;50807;52.436;13.346;2023-11-19T02:30:23;100652.00;;;9.40
15845;BMP180;50807;52.436;13.346;2023-11-19T02:30:56;100661.00;;;9.30
15845;BMP180;50807;52.436;13.346;2023-11-19T02:31:28;100655.00;;;9.40
15845;BMP180;50807;52.436;13.346;2023-11-19T02:31:59;100646.00;;;9.30
15845;BMP180;50807;52.436;13.346;2023-11-19T02:32:30;100649.00;;;9.40
15845;BMP180;50807;52.436;13.346;2023-11-19T02:33:01;100667.00;;;9.40
15845;BMP180;50807;52.436;13.346;2023-11-19T02:33:36;100652.00;;;9.30
15845;BMP180;50807;52.436;13.346;2023-11-19T02:34:07;100653.00;;;9.40
15845;BMP180;50807;52.436;13.346;2023-11-19T02:34:37;100643.00;;;9.40
15845;BMP180;50807;52.436;13.346;2023-11-19T02:35:08;100631.00;;;9.40
15845;BMP180;50807;52.436;13.346;2023-11-19T02:35:40;100631.00;;;9.40
15845;BMP180;50807;52.436;13.346;2023-11-19T02:36:11;100632.00;;;9.40
15845;BMP180;50807;52.436;13.346;2023-11-19T02:36:42;100641.00;;;9.40
15845;BMP180;50807;52.436;13.346;2023-11-19T02:37:13;100617.00;;;9.40
15845;BMP180;50807;52.436;13.346;2023-11-19T02:37:45;100621.00;;;9.40
15845;BMP180;50807;52.436;13.346;2023-11-19T02:38:17;100613.00;;;9.40
15845;BMP180;50807;52.436;13.346;2023-11-19T02:38:47;100614.00;;;9.40
15845;BMP180;50807;52.436;13.346;2023-11-19T02:39:18;100631.00;;;9.40
15845;BMP180;50807;52.436;13.346;2023-11-19T02:39:52;100621.00;;;9.40
15845;BMP180;50807;52.436;13.346;2023-11-19T02:40:22;100613.00;;;9.40
15845;BMP180;50807;52.436;13.346;2023-11-19T02:40:54;100627.00;;;9.40
15845;BMP180;50807;52.436;13.346;2023-11-19T02:41:25;100617.00;;;9.40
15845;BMP180;50807;52.436;13.346;2023-11-19T02:41:57;100624.00;;;9.40
15845;BMP180;50807;52.436;13.346;2023-11-19T02:42:28;100629.00;;;9.40
15845;BMP180;50807;52.436;13.346;2023-11-19T02:43:00;100626.00;;;9.40
15845;BMP180;50807;52.436;13.346;2023-11-19T02:43:31;100618.00;;;9.40
15845;BMP180;50807;52.436;13.346;2023-11-19T02:44:04;100609.00;;;9.40
15845;BMP180;50807;52.436;13.346;2023-11-19T02:44:36;100627.00;;;9.40
15845;BMP180;50807;52.436;13.346;2023-11-19T02:45:10;100632.00;;;9.40
15845;BMP180;50807;52.436;13.346;2023-11-19T02:45:45;100614.00;;;9.40
15845;BMP180;50807;52.436;13.346;2023-11-19T02:46:16;100631.00;;;9.40
15845;BMP180;50807;52.436;13.346;2023-11-19T02:46:48;100626.00;;;9.40
15845;BMP180;50807;52.436;13.346;2023-11-19T02:47:18;100620.00;;;9.40
15845;BMP180;50807;52.436;13.346;2023-11-19T02:47:52;100622.00;;;9.40
15845;BMP180;50807;52.436;13.346;2023-11-19T02:48:22;100627.00;;;9.40
15845;BMP180;50807;52.436;13.346;2023-11-19T02:48:54;100618.00;;;9.50
15845;BMP180;50807;52.436;13.346;2023-11-19T02:49:25;100610.00;;;9.40
15845;BMP180;50807;52.436;13.346;2023-11-19T02:49:56;100608.00;;;9.40
15845;BMP180;50807;52.436;13.346;2023-11-19T02:50:28;100615.00;;;9.50
15845;BMP180;50807;52.436;13.346;2023-11-19T02:51:00;100624.00;;;9.40
15845;BMP180;50807;52.436;13.346;2023-11-19T02:51:31;100615.00;;;9.50
15845;BMP180;50807;52.436;13.346;2023-11-19T02:52:02;100604.00;;;9.50
15845;BMP180;50807;52.436;13.346;2023-11-19T02:52:33;100615.00;;;9.40
15845;BMP180;50807;52.436;13.346;2023-11-19T02:53:08;100602.00;;;9.50
15845;BMP180;50807;52.436;13.346;2023-11-19T02:53:39;100600.00;;;9.40
15845;BMP180;50807;52.436;13.346;2023-11-19T02:54:10;100600.00;;;9.50
15845;BMP180;50807;52.436;13.346;2023-11-19T02:54:43;100589.00;;;9.50
15845;BMP180;50807;52.436;13.346;2023-11-19T02:55:13;100592.00;;;9.40
15845;BMP180;50807;52.436;13.346;2023-11-19T02:55:44;100597.00;;;9.50
15845;BMP180;50807;52.436;13.346;2023-11-19T02:56:20;100586.00;;;9.40
15845;BMP180;50807;52.436;13.346;2023-11-19T02:56:56;100588.00;;;9.40
15845;BMP180;50807;52.436;13.346;2023-11-19T02:57:31;100583.00;;;9.40
15845;BMP180;50807;52.436;13.346;2023-11-19T02:58:04;100563.00;;;9.40
15845;BMP180;50807;52.436;13.346;2023-11-19T02:58:43;100565.00;;;9.40
15845;BMP180;50807;52.436;13.346;2023-11-19T02:59:15;100577.00;;;9.40
15845;BMP180;50807;52.436;13.346;2023-11-19T02:59:57;100575.00;;;9.40
15845;BMP180;50807;52.436;13.346;2023-11-19T03:00:29;100571.00;;;9.40
15845;BMP180;50807;52.436;13.346;2023-11-19T03:01:07;100582.00;;;9.40
15845;BMP180;50807;52.436;13.346;2023-11-19T03:01:40;100575.00;;;9.40